M/T Filos — 9HQB8 — position and weather

sailwx.info

Track history (hours):
 
Tides and Currents Weather Stations Pressure Air Temp Water Temp Dewpoint Dewpoint Depression Visibility Wind Speed Wind Dir Waves Ship Positions

M/T Filos

Last reported at 2015-Sep-01 23:31 UTC. Time now 2015-Sep-02 00:21 UTC.
Position N 51°21' E 003°46'.

Length 180 m; draft 7.4 m.

Type: Tanker. MMSI: 224561000.

Date/timePositionNaut miles runAvg speedWind from/ knotsBaromVisibWave heightAir tempDewpointWater temp
2015-Sep-01 23:31N 51°21' E 003°46'0 0.0
2015-Sep-01 22:28N 51°21' E 003°46'0 0.0
2015-Sep-01 21:28N 51°21' E 003°46'0 0.0
2015-Sep-01 20:28N 51°21' E 003°46'0 0.0
2015-Sep-01 19:28N 51°21' E 003°46'0 0.0
2015-Sep-01 18:33N 51°21' E 003°46'5 5.0
2015-Sep-01 17:33N 51°25' E 003°41'1010.4
2015-Sep-01 16:33N 51°24' E 003°24'1212.3
2015-Sep-01 15:33N 51°24' E 003°04'1212.3
2015-Sep-01 14:34N 51°22' E 002°45'1211.9
2015-Sep-01 13:33N 51°21' E 002°26'1312.8
2015-Sep-01 12:33N 51°15' E 002°08'1211.6
2015-Sep-01 11:33N 51°09' E 001°52'10 9.9
2015-Sep-01 10:33N 51°03' E 001°40'8 8.3
2015-Sep-01 09:33N 50°57' E 001°30'8 7.6
2015-Sep-01 08:33N 50°50' E 001°25'  
2015-Aug-29 00:33N 39°38' W 009°57'1111.1
2015-Aug-28 23:33N 39°27' W 009°57'1110.9
2015-Aug-28 22:33N 39°16' W 009°58'1110.9
2015-Aug-28 21:33N 39°05' W 009°57'1110.6
2015-Aug-28 20:33N 38°54' W 009°57'1110.5
2015-Aug-28 19:33N 38°44' W 009°57'10 9.6
2015-Aug-28 18:33N 38°35' W 009°53'10 9.7
2015-Aug-28 17:34N 38°29' W 009°43'1010.0
2015-Aug-28 16:33N 38°23' W 009°33'10 9.9
2015-Aug-28 15:33N 38°17' W 009°23'10 9.8
2015-Aug-28 14:33N 38°10' W 009°14'1010.3
2015-Aug-28 13:33N 38°04' W 009°03'1010.1
2015-Aug-28 12:33N 37°57' W 008°54'1 1.4
2015-Aug-28 11:31N 37°57' W 008°53'0 0.0
2015-Aug-28 10:31N 37°57' W 008°53'0 0.0
2015-Aug-28 09:25N 37°57' W 008°53'0 0.0
2015-Aug-28 08:31N 37°57' W 008°53'0 0.0
2015-Aug-28 07:31N 37°57' W 008°53'0 0.0
2015-Aug-28 06:31N 37°57' W 008°53'0 0.0
2015-Aug-28 05:31N 37°57' W 008°53'0 0.0
2015-Aug-28 04:31N 37°57' W 008°53'0 0.0
2015-Aug-28 03:31N 37°57' W 008°53'0 0.0
2015-Aug-28 02:31N 37°57' W 008°53'0 0.0
2015-Aug-28 01:31N 37°57' W 008°53'0 0.0
2015-Aug-28 00:31N 37°57' W 008°53'0 0.0
2015-Aug-27 23:31N 37°57' W 008°53'0 0.0
2015-Aug-27 22:31N 37°57' W 008°53'0 0.0
2015-Aug-27 21:31N 37°57' W 008°53'0 0.0
2015-Aug-27 20:31N 37°57' W 008°53'0 0.0
2015-Aug-27 19:31N 37°57' W 008°53'0 0.0
2015-Aug-27 18:31N 37°57' W 008°53'0 0.0
2015-Aug-27 17:31N 37°57' W 008°53'0 0.0
2015-Aug-27 16:31N 37°57' W 008°53'0 0.0
2015-Aug-27 15:31N 37°57' W 008°53'0 0.0
2015-Aug-27 14:31N 37°57' W 008°53'0 0.0
2015-Aug-27 13:31N 37°57' W 008°53'0 0.0
2015-Aug-27 12:31N 37°57' W 008°53'0 0.0
2015-Aug-27 11:31N 37°57' W 008°53'3 3.1
2015-Aug-27 10:32N 37°54' W 008°51'0 0.1
2015-Aug-27 09:32N 37°54' W 008°51'0 0.0
2015-Aug-27 08:32N 37°54' W 008°51'0 0.0
2015-Aug-27 07:32N 37°54' W 008°51'0 0.0
2015-Aug-27 06:32N 37°54' W 008°51'0 0.1
2015-Aug-27 05:33N 37°54' W 008°51'5 5.0
2015-Aug-27 04:33N 37°50' W 008°53'1212.0
2015-Aug-27 03:33N 37°38' W 008°60'1211.5
2015-Aug-27 02:33N 37°28' W 009°06'1110.9
2015-Aug-27 01:33N 37°18' W 009°12'1110.7
2015-Aug-27 00:33N 37°08' W 009°17'1110.0
2015-Aug-26 23:25N 36°57' W 009°20'9 9.8
2015-Aug-26 22:33N 36°50' W 009°15'10 9.5
2015-Aug-26 21:29N 36°44' W 009°05'1010.6
2015-Aug-26 20:34N 36°43' W 008°53'1010.4
2015-Aug-26 19:34N 36°43' W 008°40'10 9.8
2015-Aug-26 18:33N 36°43' W 008°27'10 9.6
2015-Aug-26 17:33N 36°44' W 008°16'10 9.6
2015-Aug-26 16:33N 36°46' W 008°04'10 9.6
2015-Aug-26 15:34N 36°47' W 007°52'  
Track history (hours):
 
Tides and Currents Weather Stations Pressure Air Temp Water Temp Dewpoint Dewpoint Depression Visibility Wind Speed Wind Dir Waves Ship Positions

M/T Filos

Last reported at 2015-Sep-01 23:31 UTC. Time now 2015-Sep-02 00:21 UTC.
Position N 51°21' E 003°46'.

Length 180 m; draft 7.4 m.

Type: Tanker. MMSI: 224561000.

Date/timePositionNaut miles runAvg speedWind from/ knotsBaromVisibWave heightAir tempDewpointWater temp
2015-Sep-01 23:31N 51°21' E 003°46'0 0.0
2015-Sep-01 22:28N 51°21' E 003°46'0 0.0
2015-Sep-01 21:28N 51°21' E 003°46'0 0.0
2015-Sep-01 20:28N 51°21' E 003°46'0 0.0
2015-Sep-01 19:28N 51°21' E 003°46'0 0.0
2015-Sep-01 18:33N 51°21' E 003°46'5 5.0
2015-Sep-01 17:33N 51°25' E 003°41'1010.4
2015-Sep-01 16:33N 51°24' E 003°24'1212.3
2015-Sep-01 15:33N 51°24' E 003°04'1212.3
2015-Sep-01 14:34N 51°22' E 002°45'1211.9
2015-Sep-01 13:33N 51°21' E 002°26'1312.8
2015-Sep-01 12:33N 51°15' E 002°08'1211.6
2015-Sep-01 11:33N 51°09' E 001°52'10 9.9
2015-Sep-01 10:33N 51°03' E 001°40'8 8.3
2015-Sep-01 09:33N 50°57' E 001°30'8 7.6
2015-Sep-01 08:33N 50°50' E 001°25'  
2015-Aug-29 00:33N 39°38' W 009°57'1111.1
2015-Aug-28 23:33N 39°27' W 009°57'1110.9
2015-Aug-28 22:33N 39°16' W 009°58'1110.9
2015-Aug-28 21:33N 39°05' W 009°57'1110.6
2015-Aug-28 20:33N 38°54' W 009°57'1110.5
2015-Aug-28 19:33N 38°44' W 009°57'10 9.6
2015-Aug-28 18:33N 38°35' W 009°53'10 9.7
2015-Aug-28 17:34N 38°29' W 009°43'1010.0
2015-Aug-28 16:33N 38°23' W 009°33'10 9.9
2015-Aug-28 15:33N 38°17' W 009°23'10 9.8
2015-Aug-28 14:33N 38°10' W 009°14'1010.3
2015-Aug-28 13:33N 38°04' W 009°03'1010.1
2015-Aug-28 12:33N 37°57' W 008°54'1 1.4
2015-Aug-28 11:31N 37°57' W 008°53'0 0.0
2015-Aug-28 10:31N 37°57' W 008°53'0 0.0
2015-Aug-28 09:25N 37°57' W 008°53'0 0.0
2015-Aug-28 08:31N 37°57' W 008°53'0 0.0
2015-Aug-28 07:31N 37°57' W 008°53'0 0.0
2015-Aug-28 06:31N 37°57' W 008°53'0 0.0
2015-Aug-28 05:31N 37°57' W 008°53'0 0.0
2015-Aug-28 04:31N 37°57' W 008°53'0 0.0
2015-Aug-28 03:31N 37°57' W 008°53'0 0.0
2015-Aug-28 02:31N 37°57' W 008°53'0 0.0
2015-Aug-28 01:31N 37°57' W 008°53'0 0.0
2015-Aug-28 00:31N 37°57' W 008°53'0 0.0
2015-Aug-27 23:31N 37°57' W 008°53'0 0.0
2015-Aug-27 22:31N 37°57' W 008°53'0 0.0
2015-Aug-27 21:31N 37°57' W 008°53'0 0.0
2015-Aug-27 20:31N 37°57' W 008°53'0 0.0
2015-Aug-27 19:31N 37°57' W 008°53'0 0.0
2015-Aug-27 18:31N 37°57' W 008°53'0 0.0
2015-Aug-27 17:31N 37°57' W 008°53'0 0.0
2015-Aug-27 16:31N 37°57' W 008°53'0 0.0
2015-Aug-27 15:31N 37°57' W 008°53'0 0.0
2015-Aug-27 14:31N 37°57' W 008°53'0 0.0
2015-Aug-27 13:31N 37°57' W 008°53'0 0.0
2015-Aug-27 12:31N 37°57' W 008°53'0 0.0
2015-Aug-27 11:31N 37°57' W 008°53'3 3.1
2015-Aug-27 10:32N 37°54' W 008°51'0 0.1
2015-Aug-27 09:32N 37°54' W 008°51'0 0.0
2015-Aug-27 08:32N 37°54' W 008°51'0 0.0
2015-Aug-27 07:32N 37°54' W 008°51'0 0.0
2015-Aug-27 06:32N 37°54' W 008°51'0 0.1
2015-Aug-27 05:33N 37°54' W 008°51'5 5.0
2015-Aug-27 04:33N 37°50' W 008°53'1212.0
2015-Aug-27 03:33N 37°38' W 008°60'1211.5
2015-Aug-27 02:33N 37°28' W 009°06'1110.9
2015-Aug-27 01:33N 37°18' W 009°12'1110.7
2015-Aug-27 00:33N 37°08' W 009°17'1110.0
2015-Aug-26 23:25N 36°57' W 009°20'9 9.8
2015-Aug-26 22:33N 36°50' W 009°15'10 9.5
2015-Aug-26 21:29N 36°44' W 009°05'1010.6
2015-Aug-26 20:34N 36°43' W 008°53'1010.4
2015-Aug-26 19:34N 36°43' W 008°40'10 9.8
2015-Aug-26 18:33N 36°43' W 008°27'10 9.6
2015-Aug-26 17:33N 36°44' W 008°16'10 9.6
2015-Aug-26 16:33N 36°46' W 008°04'10 9.6
2015-Aug-26 15:34N 36°47' W 007°52'  

Dump ship's entire track history